Time;durP1;ratioP1;P1;durP2;ratioP2;P2;SDS_P1;SDS_P2;PMS_P1;PMS_P2;Temp;Humidity;BMP_temperature;BMP_pressure;BME280_temperature;BME280_humidity;BME280_pressure;Samples;Min_cycle;Max_cycle;Signal;HPM_P1;HPM_P2
2023/07/23 00:02:21;;;;;;;9.32;5.82;;;15.20;99.90;;;;;;5010887;28;20404;-61
2023/07/23 00:04:46;;;;;;;9.98;6.07;;;15.20;99.90;;;;;;5013053;28;20096;-61
2023/07/23 00:07:12;;;;;;;11.93;6.43;;;15.20;99.90;;;;;;5012623;28;20038;-61
2023/07/23 00:09:38;;;;;;;11.40;6.28;;;15.20;99.90;;;;;;5013446;28;20112;-61
2023/07/23 00:12:03;;;;;;;8.85;6.00;;;15.20;99.90;;;;;;5011084;28;20190;-61
2023/07/23 00:14:29;;;;;;;12.05;6.68;;;15.20;99.90;;;;;;5010767;28;20076;-61
2023/07/23 00:16:55;;;;;;;13.77;7.00;;;15.20;99.90;;;;;;5012559;28;20125;-61
2023/07/23 00:19:21;;;;;;;12.50;7.18;;;15.20;99.90;;;;;;5011688;28;20085;-61
2023/07/23 00:21:47;;;;;;;12.32;6.47;;;15.20;99.90;;;;;;5009059;28;20572;-61
2023/07/23 00:24:14;;;;;;;9.82;6.90;;;15.20;99.90;;;;;;5004002;28;20113;-61
2023/07/23 00:26:40;;;;;;;11.43;6.30;;;15.20;99.90;;;;;;5003475;28;20107;-61
2023/07/23 00:29:05;;;;;;;11.35;6.57;;;15.20;99.90;;;;;;5007896;28;20041;-61
2023/07/23 00:31:31;;;;;;;11.55;7.03;;;15.20;99.90;;;;;;5012784;28;20042;-61
2023/07/23 00:33:57;;;;;;;14.43;6.97;;;15.20;99.90;;;;;;5006210;28;20066;-61
2023/07/23 00:36:22;;;;;;;12.52;6.38;;;15.20;99.90;;;;;;5010273;28;20040;-61
2023/07/23 00:38:48;;;;;;;9.68;6.38;;;15.20;99.90;;;;;;5012375;28;20120;-61
2023/07/23 00:41:14;;;;;;;11.55;6.60;;;15.20;99.90;;;;;;5006142;28;20459;-61
2023/07/23 00:43:39;;;;;;;12.27;6.47;;;15.20;99.90;;;;;;5011740;28;20121;-61
2023/07/23 00:46:05;;;;;;;11.88;6.05;;;15.20;99.90;;;;;;5011880;28;20070;-61
2023/07/23 00:48:31;;;;;;;12.35;6.38;;;15.20;99.90;;;;;;5003341;28;20284;-61
2023/07/23 00:50:57;;;;;;;13.55;6.43;;;15.20;99.90;;;;;;5001943;28;20030;-61
2023/07/23 00:53:25;;;;;;;10.43;6.25;;;15.20;99.90;;;;;;5005417;28;20121;-61
2023/07/23 00:55:52;;;;;;;11.63;6.82;;;15.20;99.90;;;;;;5003291;28;20041;-62
2023/07/23 00:58:18;;;;;;;12.23;6.43;;;15.20;99.90;;;;;;5011716;28;20401;-61
2023/07/23 01:00:43;;;;;;;11.32;6.50;;;15.20;99.90;;;;;;5002998;28;20034;-61
2023/07/23 01:03:09;;;;;;;11.88;6.47;;;15.20;99.90;;;;;;5008957;28;20044;-61
2023/07/23 01:05:38;;;;;;;10.43;6.07;;;15.20;99.90;;;;;;5005103;28;20049;-62
2023/07/23 01:08:04;;;;;;;11.88;6.50;;;15.20;99.90;;;;;;5009079;28;20105;-61
2023/07/23 01:10:32;;;;;;;10.85;6.30;;;15.20;99.90;;;;;;5004220;28;20045;-61
2023/07/23 01:12:58;;;;;;;12.88;6.57;;;15.20;99.90;;;;;;5008079;28;20511;-61
2023/07/23 01:15:24;;;;;;;10.77;6.25;;;15.20;99.90;;;;;;5010178;28;20109;-61
2023/07/23 01:17:51;;;;;;;12.77;7.15;;;15.20;99.90;;;;;;5010978;28;20046;-62
2023/07/23 01:20:17;;;;;;;12.40;6.45;;;15.20;99.90;;;;;;5010987;28;20135;-61
2023/07/23 01:22:42;;;;;;;16.92;7.43;;;15.10;99.90;;;;;;5003099;28;20081;-61
2023/07/23 01:25:08;;;;;;;14.77;7.35;;;15.10;99.90;;;;;;5007336;28;20056;-61
2023/07/23 01:27:34;;;;;;;12.00;7.10;;;15.10;99.90;;;;;;5011192;28;20046;-61
2023/07/23 01:29:59;;;;;;;11.38;6.93;;;15.10;99.90;;;;;;5009040;28;20504;-62
2023/07/23 01:32:25;;;;;;;13.02;6.93;;;15.10;99.90;;;;;;5009506;28;20042;-62
2023/07/23 01:34:52;;;;;;;12.13;7.45;;;15.10;99.90;;;;;;5008221;28;20401;-61
2023/07/23 01:37:19;;;;;;;14.48;7.10;;;15.10;99.90;;;;;;5010153;28;20040;-61
2023/07/23 01:39:44;;;;;;;11.93;7.07;;;15.10;99.90;;;;;;5008195;28;20092;-61
2023/07/23 01:42:11;;;;;;;11.43;6.82;;;15.00;99.90;;;;;;5010157;28;20038;-61
2023/07/23 01:44:37;;;;;;;12.60;7.07;;;15.00;99.90;;;;;;5009906;28;20475;-61
2023/07/23 01:47:03;;;;;;;12.00;7.53;;;15.00;99.90;;;;;;5012002;28;20069;-61
2023/07/23 01:49:29;;;;;;;12.63;7.40;;;15.00;99.90;;;;;;5010465;28;20921;-61
2023/07/23 01:51:55;;;;;;;13.00;7.00;;;15.00;99.90;;;;;;5016641;28;20128;-61
2023/07/23 01:54:20;;;;;;;11.63;6.68;;;15.00;99.90;;;;;;5016790;28;20034;-61
2023/07/23 01:56:47;;;;;;;14.40;7.15;;;15.00;99.90;;;;;;5017434;28;20041;-61
2023/07/23 01:59:13;;;;;;;11.38;7.03;;;15.00;99.90;;;;;;5018338;28;20042;-61
2023/07/23 02:01:39;;;;;;;10.82;6.63;;;15.00;99.90;;;;;;5015179;28;20045;-61
2023/07/23 02:04:05;;;;;;;11.43;6.75;;;15.00;99.90;;;;;;5014296;28;20038;-61
2023/07/23 02:06:30;;;;;;;13.63;7.18;;;15.00;99.90;;;;;;5012151;28;20052;-61
2023/07/23 02:08:56;;;;;;;11.68;7.03;;;15.00;99.90;;;;;;5010037;28;20430;-61
2023/07/23 02:11:22;;;;;;;14.63;7.75;;;15.00;99.90;;;;;;5017288;28;20048;-61
2023/07/23 02:13:47;;;;;;;12.77;7.15;;;15.00;99.90;;;;;;5008491;28;20050;-61
2023/07/23 02:16:17;;;;;;;12.38;7.38;;;14.90;99.90;;;;;;5008878;28;20202;-61
2023/07/23 02:18:42;;;;;;;11.45;7.25;;;15.00;99.90;;;;;;5016383;28;20050;-61
2023/07/23 02:21:08;;;;;;;17.05;7.80;;;15.00;99.90;;;;;;5014673;28;20126;-61
2023/07/23 02:23:33;;;;;;;12.35;6.93;;;15.00;99.90;;;;;;5014950;28;20041;-61
2023/07/23 02:25:59;;;;;;;13.25;7.43;;;15.10;99.90;;;;;;5015908;28;20054;-61
2023/07/23 02:28:25;;;;;;;14.68;7.53;;;15.10;99.90;;;;;;5017766;28;20045;-61
2023/07/23 02:30:58;;;;;;;12.90;8.30;;;15.10;99.90;;;;;;5014707;28;20069;-61
2023/07/23 02:33:24;;;;;;;16.63;7.30;;;15.10;99.90;;;;;;5015744;28;20041;-61
2023/07/23 02:35:49;;;;;;;15.77;7.43;;;15.10;99.90;;;;;;5008174;28;20042;-61
2023/07/23 02:38:15;;;;;;;12.95;8.02;;;15.00;99.90;;;;;;5017419;28;20026;-61
2023/07/23 02:40:41;;;;;;;12.98;7.65;;;15.00;99.90;;;;;;5000735;28;20515;-61
2023/07/23 02:43:09;;;;;;;16.65;7.90;;;15.10;99.90;;;;;;5001115;28;20025;-61
2023/07/23 02:45:35;;;;;;;11.80;7.18;;;15.00;99.90;;;;;;5014666;28;20041;-61
2023/07/23 02:48:01;;;;;;;12.07;7.35;;;15.10;99.90;;;;;;5014986;28;20034;-61
2023/07/23 02:50:26;;;;;;;17.10;8.70;;;15.00;99.90;;;;;;5017308;28;20124;-61
2023/07/23 02:52:52;;;;;;;13.30;7.97;;;15.00;99.90;;;;;;5016225;28;20033;-61
2023/07/23 02:55:18;;;;;;;13.02;7.93;;;15.00;99.90;;;;;;5015378;28;20512;-61
2023/07/23 02:57:44;;;;;;;14.27;7.93;;;15.00;99.90;;;;;;5017384;28;20123;-61
2023/07/23 03:00:11;;;;;;;14.05;8.00;;;15.10;99.90;;;;;;5010649;28;20092;-61
2023/07/23 03:02:37;;;;;;;12.80;8.05;;;15.00;99.90;;;;;;5011277;28;20042;-61
2023/07/23 03:05:03;;;;;;;14.77;8.73;;;15.10;99.90;;;;;;5004819;28;20037;-61
2023/07/23 03:07:32;;;;;;;18.70;8.20;;;15.00;99.90;;;;;;5012426;28;20511;-61
2023/07/23 03:09:57;;;;;;;12.32;8.07;;;15.00;99.90;;;;;;5011546;28;20050;-61
2023/07/23 03:12:23;;;;;;;12.13;8.25;;;15.00;99.90;;;;;;5010308;28;20038;-62
2023/07/23 03:14:49;;;;;;;13.90;8.07;;;15.00;99.90;;;;;;5012343;28;20514;-61
2023/07/23 03:17:14;;;;;;;13.55;7.65;;;15.00;99.90;;;;;;5011616;28;20041;-61
2023/07/23 03:19:40;;;;;;;14.85;8.15;;;15.00;99.90;;;;;;5005777;28;20453;-61
2023/07/23 03:22:06;;;;;;;15.40;8.35;;;15.00;99.90;;;;;;5011490;28;20038;-61
2023/07/23 03:24:31;;;;;;;13.98;8.32;;;15.00;99.90;;;;;;5012922;28;20042;-60
2023/07/23 03:26:57;;;;;;;17.30;8.63;;;15.00;99.90;;;;;;5014017;28;20080;-60
2023/07/23 03:29:22;;;;;;;15.45;8.43;;;15.00;99.90;;;;;;5013128;28;20048;-61
2023/07/23 03:31:48;;;;;;;14.00;8.40;;;15.00;99.90;;;;;;5007000;28;20061;-61
2023/07/23 03:34:14;;;;;;;14.70;8.45;;;15.00;99.90;;;;;;5012465;28;20030;-61
2023/07/23 03:36:39;;;;;;;13.93;8.65;;;15.00;99.90;;;;;;5011409;28;20719;-61
2023/07/23 03:39:05;;;;;;;17.02;9.20;;;15.00;99.90;;;;;;5012678;28;20038;-61
2023/07/23 03:41:30;;;;;;;13.00;7.70;;;15.00;99.90;;;;;;5010734;28;20057;-61
2023/07/23 03:43:56;;;;;;;14.80;8.38;;;15.00;99.90;;;;;;5012348;28;20510;-61
2023/07/23 03:46:21;;;;;;;14.68;8.77;;;15.00;99.90;;;;;;5012375;28;20067;-61
2023/07/23 03:48:47;;;;;;;14.98;9.10;;;15.00;99.90;;;;;;5011941;28;20045;-61
2023/07/23 03:51:15;;;;;;;14.35;8.85;;;15.00;99.90;;;;;;5013771;28;20064;-61
2023/07/23 03:53:41;;;;;;;13.45;8.70;;;15.10;99.90;;;;;;5007971;28;20052;-61
2023/07/23 03:56:07;;;;;;;14.65;8.70;;;15.10;99.90;;;;;;5013279;28;20046;-61
2023/07/23 03:58:32;;;;;;;15.57;8.77;;;15.10;99.90;;;;;;5013628;28;20522;-61
2023/07/23 04:00:58;;;;;;;14.77;8.80;;;15.10;99.90;;;;;;5008048;28;20046;-60
2023/07/23 04:03:23;;;;;;;14.60;8.45;;;15.00;99.90;;;;;;5012767;28;20038;-60
2023/07/23 04:05:49;;;;;;;15.65;9.57;;;15.10;99.90;;;;;;5011033;28;20046;-60
2023/07/23 04:08:15;;;;;;;13.52;9.00;;;15.10;99.90;;;;;;5004626;28;20484;-60
2023/07/23 04:10:40;;;;;;;14.45;8.88;;;15.10;99.90;;;;;;5006374;28;20463;-60
2023/07/23 04:13:06;;;;;;;13.48;8.88;;;15.10;99.90;;;;;;5010780;28;20037;-61
2023/07/23 04:15:36;;;;;;;14.52;8.93;;;15.10;99.90;;;;;;5013018;28;20120;-61
2023/07/23 04:18:01;;;;;;;13.77;8.90;;;15.10;99.90;;;;;;5012433;28;20050;-60
2023/07/23 04:20:27;;;;;;;13.38;8.50;;;15.00;99.90;;;;;;5011671;28;20045;-61
2023/07/23 04:22:53;;;;;;;18.17;9.93;;;15.10;99.90;;;;;;5003398;28;20074;-61
2023/07/23 04:25:18;;;;;;;15.25;9.20;;;15.10;99.90;;;;;;5007765;28;20034;-61
2023/07/23 04:27:44;;;;;;;15.93;9.75;;;15.00;99.90;;;;;;5005907;28;20041;-61
2023/07/23 04:30:10;;;;;;;15.48;9.10;;;15.00;99.90;;;;;;5011493;28;20068;-61
2023/07/23 04:32:35;;;;;;;15.55;9.88;;;15.10;99.90;;;;;;5012423;28;20029;-61
2023/07/23 04:35:01;;;;;;;16.98;9.55;;;15.10;99.90;;;;;;5012240;28;20045;-61
2023/07/23 04:37:27;;;;;;;15.07;9.18;;;15.10;99.90;;;;;;5012500;28;20038;-61
2023/07/23 04:39:52;;;;;;;17.77;9.32;;;15.00;99.90;;;;;;5012453;28;20060;-61
2023/07/23 04:42:18;;;;;;;15.18;9.35;;;15.10;99.90;;;;;;5012890;28;20057;-60
2023/07/23 04:44:44;;;;;;;15.00;9.85;;;15.00;99.90;;;;;;5004795;28;20041;-61
2023/07/23 04:47:09;;;;;;;15.30;9.18;;;15.10;99.90;;;;;;5010791;28;20045;-61
2023/07/23 04:49:35;;;;;;;13.88;9.93;;;15.10;99.90;;;;;;5012310;28;20041;-61
2023/07/23 04:52:00;;;;;;;13.73;9.32;;;15.10;99.90;;;;;;5010474;28;20038;-61
2023/07/23 04:54:26;;;;;;;16.10;10.20;;;15.10;99.90;;;;;;5003691;28;20125;-61
2023/07/23 04:56:52;;;;;;;14.13;9.65;;;15.10;99.90;;;;;;5012772;28;20029;-61
2023/07/23 04:59:17;;;;;;;13.95;9.48;;;15.10;99.90;;;;;;5012259;28;20067;-61
2023/07/23 05:01:43;;;;;;;16.85;9.38;;;15.10;99.90;;;;;;5008681;28;20068;-61
2023/07/23 05:04:10;;;;;;;16.48;9.73;;;15.10;99.90;;;;;;5011503;28;20495;-61
2023/07/23 05:06:35;;;;;;;15.55;9.25;;;15.10;99.90;;;;;;5003703;28;20385;-61
2023/07/23 05:09:01;;;;;;;15.40;9.95;;;15.10;99.90;;;;;;5010191;28;20172;-61
2023/07/23 05:11:26;;;;;;;16.55;9.32;;;15.10;99.90;;;;;;5005605;28;20061;-61
2023/07/23 05:13:52;;;;;;;17.15;9.75;;;15.10;99.90;;;;;;5010781;28;20091;-61
2023/07/23 05:18:50;;;;;;;16.65;9.82;;;15.20;99.90;;;;;;5033003;28;20385;-67
2023/07/23 05:21:16;;;;;;;17.58;9.32;;;15.20;99.90;;;;;;5037361;28;20033;-67
2023/07/23 05:23:43;;;;;;;16.58;8.85;;;15.20;99.90;;;;;;5046370;28;20045;-67
2023/07/23 05:26:09;;;;;;;16.70;9.32;;;15.20;99.90;;;;;;5036999;28;20037;-67
2023/07/23 05:28:34;;;;;;;14.35;9.15;;;15.20;99.90;;;;;;5030471;28;20199;-67
2023/07/23 05:31:00;;;;;;;12.90;8.80;;;15.20;99.90;;;;;;5028531;28;20038;-68
2023/07/23 05:33:26;;;;;;;18.25;9.18;;;15.30;99.90;;;;;;5031680;28;20428;-67
2023/07/23 05:35:52;;;;;;;12.27;8.43;;;15.30;99.90;;;;;;5028821;28;20044;-67
2023/07/23 05:38:17;;;;;;;13.23;9.25;;;15.30;99.90;;;;;;5031276;28;20037;-67
2023/07/23 05:40:43;;;;;;;13.57;8.48;;;15.30;99.90;;;;;;5028280;28;20036;-67
2023/07/23 05:43:16;;;;;;;13.93;9.43;;;15.40;99.90;;;;;;5028671;28;20116;-67
2023/07/23 05:45:42;;;;;;;14.68;9.00;;;15.40;99.90;;;;;;5028004;28;20104;-67
2023/07/23 05:48:07;;;;;;;16.40;9.10;;;15.40;99.90;;;;;;5031128;28;20514;-67
2023/07/23 05:50:33;;;;;;;14.85;9.68;;;15.40;99.90;;;;;;5029790;28;20095;-67
2023/07/23 05:52:59;;;;;;;13.13;8.85;;;15.50;99.90;;;;;;5025113;28;20033;-67
2023/07/23 05:55:25;;;;;;;11.13;8.05;;;15.50;99.90;;;;;;5030324;28;20052;-67
2023/07/23 05:57:50;;;;;;;14.77;9.38;;;15.50;99.90;;;;;;5031367;28;20115;-67
2023/07/23 06:00:16;;;;;;;16.42;9.38;;;15.50;99.90;;;;;;5029708;28;20439;-68
2023/07/23 06:02:42;;;;;;;13.30;8.43;;;15.60;99.90;;;;;;5035172;28;20033;-68
2023/07/23 06:05:07;;;;;;;14.30;8.45;;;15.60;99.90;;;;;;5029170;28;20071;-68
2023/07/23 06:07:33;;;;;;;12.80;8.43;;;15.70;99.90;;;;;;5030450;28;20034;-68
2023/07/23 06:09:59;;;;;;;14.32;8.80;;;15.70;99.90;;;;;;5027586;28;20551;-68
2023/07/23 06:12:24;;;;;;;13.55;8.18;;;15.70;99.90;;;;;;5026816;28;20308;-68
2023/07/23 06:14:50;;;;;;;12.02;8.07;;;15.80;99.90;;;;;;5029160;28;20438;-68
2023/07/23 06:17:15;;;;;;;14.00;8.05;;;15.70;99.90;;;;;;5029669;28;20491;-68
2023/07/23 06:19:41;;;;;;;14.18;8.45;;;15.80;99.90;;;;;;5029935;28;20041;-68
2023/07/23 06:22:07;;;;;;;15.90;8.68;;;15.90;99.90;;;;;;5025031;28;20041;-68
2023/07/23 06:24:32;;;;;;;11.82;7.65;;;15.90;99.90;;;;;;5030571;28;20041;-68
2023/07/23 06:26:58;;;;;;;13.30;8.15;;;16.00;99.90;;;;;;5024375;28;20096;-68
2023/07/23 06:29:25;;;;;;;12.95;8.20;;;16.10;99.90;;;;;;5025983;28;20032;-68
2023/07/23 06:31:51;;;;;;;15.32;8.50;;;16.00;99.90;;;;;;5024244;28;20060;-67
2023/07/23 06:34:16;;;;;;;12.63;7.70;;;16.10;99.90;;;;;;5020113;28;20492;-68
2023/07/23 06:36:42;;;;;;;12.85;8.30;;;16.10;99.90;;;;;;5032997;28;20049;-68
2023/07/23 06:39:08;;;;;;;14.57;8.45;;;16.20;99.90;;;;;;5032323;28;20041;-68
2023/07/23 06:41:33;;;;;;;12.38;8.35;;;16.20;99.90;;;;;;5030050;28;20073;-68
2023/07/23 06:43:59;;;;;;;13.50;8.05;;;16.30;99.90;;;;;;5031414;28;20462;-68
2023/07/23 06:46:24;;;;;;;15.30;8.98;;;16.30;99.90;;;;;;5026330;28;20037;-68
2023/07/23 06:48:50;;;;;;;15.07;8.18;;;16.30;99.90;;;;;;5034074;28;20091;-68
2023/07/23 06:51:16;;;;;;;12.93;8.13;;;16.40;99.90;;;;;;5034641;28;20746;-68
2023/07/23 06:53:43;;;;;;;14.00;8.98;;;16.40;99.90;;;;;;5033314;28;20037;-68
2023/07/23 06:56:09;;;;;;;14.55;9.00;;;16.40;99.90;;;;;;5029921;28;20052;-68
2023/07/23 06:58:37;;;;;;;14.65;8.48;;;16.40;99.90;;;;;;5026617;28;20579;-69
2023/07/23 07:01:03;;;;;;;14.55;8.85;;;16.50;99.90;;;;;;5031376;28;20095;-68
2023/07/23 07:03:29;;;;;;;16.33;9.20;;;16.50;99.90;;;;;;5032273;28;20041;-68
2023/07/23 07:05:55;;;;;;;12.77;8.27;;;16.50;99.90;;;;;;5031966;28;20121;-68
2023/07/23 07:08:21;;;;;;;14.38;8.10;;;16.50;99.90;;;;;;5033961;28;20112;-68
2023/07/23 07:10:47;;;;;;;15.68;8.77;;;16.50;99.90;;;;;;5028577;28;20483;-68
2023/07/23 07:13:13;;;;;;;14.07;8.60;;;16.50;99.90;;;;;;5031783;28;20037;-68
2023/07/23 07:15:43;;;;;;;12.70;8.50;;;16.50;99.90;;;;;;5031411;28;20048;-67
2023/07/23 07:18:09;;;;;;;14.63;8.60;;;16.50;99.90;;;;;;5032427;28;20049;-67
2023/07/23 07:20:35;;;;;;;15.45;8.32;;;16.50;99.90;;;;;;5032610;28;20045;-68
2023/07/23 07:23:00;;;;;;;12.95;8.75;;;16.50;99.90;;;;;;5033797;28;20195;-68
2023/07/23 07:25:26;;;;;;;11.02;8.18;;;16.50;99.90;;;;;;5028436;28;20037;-67
2023/07/23 07:27:51;;;;;;;15.60;8.63;;;16.50;99.90;;;;;;5024962;28;20077;-68
2023/07/23 07:30:17;;;;;;;14.95;9.00;;;16.50;99.90;;;;;;5029437;28;20044;-68
2023/07/23 07:32:43;;;;;;;13.60;9.00;;;16.50;99.90;;;;;;5023037;28;20042;-68
2023/07/23 07:35:08;;;;;;;15.00;8.32;;;16.50;99.90;;;;;;5030565;28;20428;-68
2023/07/23 07:37:34;;;;;;;15.10;8.73;;;16.50;99.90;;;;;;5032122;28;20130;-69
2023/07/23 07:40:00;;;;;;;16.42;9.15;;;16.50;99.90;;;;;;5025984;28;20048;-69
2023/07/23 07:42:26;;;;;;;17.27;8.82;;;16.50;99.90;;;;;;5032308;28;20056;-69
2023/07/23 07:44:52;;;;;;;14.18;7.93;;;16.60;99.90;;;;;;5031783;28;20117;-69
2023/07/23 07:47:17;;;;;;;13.23;8.40;;;16.50;99.90;;;;;;5031925;28;20137;-69
2023/07/23 07:49:43;;;;;;;15.40;8.82;;;16.50;99.90;;;;;;5032036;28;20044;-70
2023/07/23 07:52:10;;;;;;;13.75;8.18;;;16.40;99.90;;;;;;5025799;28;20150;-70
2023/07/23 07:54:35;;;;;;;13.18;8.15;;;16.40;99.90;;;;;;5033924;28;20053;-70
2023/07/23 07:57:02;;;;;;;16.42;8.32;;;16.40;99.90;;;;;;5029567;28;20060;-70
2023/07/23 07:59:29;;;;;;;15.98;8.73;;;16.30;99.90;;;;;;5029288;28;20509;-70
2023/07/23 08:01:55;;;;;;;14.82;8.88;;;16.30;99.90;;;;;;5028235;28;20052;-70
2023/07/23 08:04:21;;;;;;;15.43;8.48;;;16.30;99.90;;;;;;5032413;28;20124;-70
2023/07/23 08:06:48;;;;;;;13.82;7.95;;;16.20;99.90;;;;;;5031982;28;20088;-70
2023/07/23 08:09:16;;;;;;;15.23;8.25;;;16.20;99.90;;;;;;5024664;28;20045;-69
2023/07/23 08:11:42;;;;;;;14.60;8.30;;;16.20;99.90;;;;;;5028658;28;20045;-69
2023/07/23 08:14:09;;;;;;;12.63;7.22;;;16.20;99.90;;;;;;5028081;28;20774;-69
2023/07/23 08:16:35;;;;;;;12.50;7.25;;;16.10;99.90;;;;;;5031823;28;20045;-69
2023/07/23 08:19:01;;;;;;;14.68;7.68;;;16.10;99.90;;;;;;5016129;28;20038;-69
2023/07/23 08:21:27;;;;;;;12.07;6.68;;;16.10;99.90;;;;;;5032709;28;20557;-69
2023/07/23 08:23:53;;;;;;;13.10;7.45;;;16.10;99.90;;;;;;5027961;28;20095;-69
2023/07/23 08:26:20;;;;;;;12.40;7.15;;;16.10;99.90;;;;;;5047809;28;20037;-69
2023/07/23 08:28:51;;;;;;;13.48;7.50;;;16.10;99.90;;;;;;5025429;28;20037;-70
2023/07/23 08:31:19;;;;;;;10.48;6.95;;;16.10;99.90;;;;;;5024148;28;20550;-70
2023/07/23 08:33:47;;;;;;;14.70;7.75;;;16.10;99.90;;;;;;5030032;28;20053;-70
2023/07/23 08:36:14;;;;;;;11.35;7.00;;;16.10;99.90;;;;;;5028215;28;20042;-69
2023/07/23 08:38:40;;;;;;;12.77;6.95;;;16.10;99.90;;;;;;5032296;28;20037;-69
2023/07/23 08:41:21;;;;;;;10.90;6.28;;;16.10;99.90;;;;;;5031697;28;20052;-68
2023/07/23 08:44:20;;;;;;;10.63;6.47;;;16.20;99.90;;;;;;5022583;28;20057;-69
2023/07/23 08:46:47;;;;;;;11.43;6.97;;;16.10;99.90;;;;;;5019942;28;20045;-69
2023/07/23 08:49:16;;;;;;;14.35;7.00;;;16.10;99.90;;;;;;5025576;28;20034;-69
2023/07/23 08:51:44;;;;;;;12.23;6.85;;;16.20;99.90;;;;;;5030746;28;20037;-69
2023/07/23 08:54:11;;;;;;;12.90;7.07;;;16.10;99.90;;;;;;5027377;28;20052;-69
2023/07/23 08:56:39;;;;;;;14.05;7.05;;;16.20;99.90;;;;;;5028054;28;20116;-69
2023/07/23 08:59:06;;;;;;;11.98;7.30;;;16.30;99.90;;;;;;5040405;28;20055;-70
2023/07/23 09:01:39;;;;;;;11.35;7.47;;;16.20;99.90;;;;;;5028004;28;20423;-69
2023/07/23 09:04:07;;;;;;;12.25;7.10;;;16.20;99.90;;;;;;5030836;28;20120;-69
2023/07/23 09:06:33;;;;;;;11.23;6.55;;;16.20;99.90;;;;;;5029546;28;20091;-69
2023/07/23 09:09:07;;;;;;;12.73;7.93;;;16.20;99.90;;;;;;5030073;28;20069;-69
2023/07/23 09:11:34;;;;;;;10.30;6.68;;;16.20;99.90;;;;;;5031429;28;20506;-69
2023/07/23 09:14:10;;;;;;;13.40;7.25;;;16.20;99.90;;;;;;5027028;28;20045;-69
2023/07/23 09:16:40;;;;;;;14.48;7.32;;;16.10;99.90;;;;;;5030127;28;20052;-69
2023/07/23 09:19:08;;;;;;;13.43;7.55;;;16.10;99.90;;;;;;5027682;28;20038;-68
2023/07/23 09:21:34;;;;;;;10.93;7.05;;;16.10;99.90;;;;;;5031093;28;20041;-68
2023/07/23 09:24:04;;;;;;;11.82;7.00;;;16.10;99.90;;;;;;5020702;28;20061;-68
2023/07/23 09:26:30;;;;;;;11.48;6.82;;;16.10;99.90;;;;;;5030060;28;20037;-69
2023/07/23 09:28:59;;;;;;;10.52;6.80;;;16.10;99.90;;;;;;5013231;28;20041;-68
2023/07/23 09:31:27;;;;;;;10.93;6.57;;;16.10;99.90;;;;;;5030944;28;20041;-68
2023/07/23 09:33:55;;;;;;;9.52;6.13;;;16.20;99.90;;;;;;5030648;28;20038;-69
2023/07/23 09:36:22;;;;;;;12.88;6.72;;;16.20;99.90;;;;;;5027046;28;20037;-69
2023/07/23 09:39:00;;;;;;;9.55;5.95;;;16.20;99.90;;;;;;5021480;28;20037;-69
2023/07/23 09:41:37;;;;;;;10.88;6.20;;;16.30;99.90;;;;;;5015644;28;20041;-68
2023/07/23 09:44:07;;;;;;;7.82;5.68;;;16.20;99.90;;;;;;5028088;28;20124;-69
2023/07/23 09:46:33;;;;;;;9.68;5.43;;;16.20;99.90;;;;;;5025667;28;20507;-69
2023/07/23 09:48:59;;;;;;;9.63;5.68;;;16.30;99.90;;;;;;5028889;28;20038;-69
2023/07/23 09:51:25;;;;;;;9.65;5.88;;;16.30;99.90;;;;;;5025962;28;20431;-69
2023/07/23 09:53:51;;;;;;;10.05;5.38;;;16.30;99.90;;;;;;5027545;28;20068;-68
2023/07/23 09:56:19;;;;;;;8.75;5.82;;;16.30;99.90;;;;;;5013556;28;20029;-68
2023/07/23 09:58:49;;;;;;;10.73;5.93;;;16.30;99.90;;;;;;5020189;28;20052;-68
2023/07/23 10:01:16;;;;;;;7.82;5.18;;;16.30;99.90;;;;;;5020717;28;20037;-69
2023/07/23 10:03:47;;;;;;;7.40;5.05;;;16.30;99.90;;;;;;5020860;28;20417;-68
2023/07/23 10:06:20;;;;;;;8.43;5.47;;;16.30;99.90;;;;;;5017734;28;20033;-68
2023/07/23 10:08:47;;;;;;;8.32;5.72;;;16.40;99.90;;;;;;5019906;28;20037;-67
2023/07/23 10:11:15;;;;;;;6.47;4.60;;;16.40;99.90;;;;;;5026658;28;20029;-68
2023/07/23 10:13:42;;;;;;;6.18;4.63;;;16.40;99.90;;;;;;5026709;28;20117;-68
2023/07/23 10:16:20;;;;;;;7.25;4.25;;;16.50;99.90;;;;;;5028370;28;20052;-68
2023/07/23 10:18:47;;;;;;;5.70;4.10;;;16.50;99.90;;;;;;5025867;28;20064;-68
2023/07/23 10:21:13;;;;;;;6.35;4.22;;;16.50;99.90;;;;;;5029427;28;20036;-68
2023/07/23 10:23:40;;;;;;;6.25;4.40;;;16.50;99.90;;;;;;5030264;28;20033;-68
2023/07/23 10:26:20;;;;;;;7.00;4.43;;;16.60;99.90;;;;;;5032551;28;20403;-68
2023/07/23 10:28:47;;;;;;;7.82;4.30;;;16.50;99.90;;;;;;5030755;28;20066;-68
2023/07/23 10:31:33;;;;;;;6.50;4.10;;;16.40;99.90;;;;;;5026227;28;20071;-68
2023/07/23 10:34:00;;;;;;;7.78;4.88;;;16.50;99.90;;;;;;5031105;28;20053;-68
2023/07/23 10:36:26;;;;;;;7.93;5.03;;;16.50;99.90;;;;;;5017315;28;20045;-68
2023/07/23 10:39:15;;;;;;;7.82;5.50;;;16.50;99.90;;;;;;5030180;28;20048;-68
2023/07/23 10:41:53;;;;;;;6.40;4.95;;;16.60;99.90;;;;;;5024146;28;20060;-69
2023/07/23 10:44:24;;;;;;;8.02;5.13;;;16.60;99.90;;;;;;5023300;28;20046;-69
2023/07/23 10:46:49;;;;;;;6.47;5.10;;;16.60;99.90;;;;;;5027792;28;20499;-68
2023/07/23 10:49:21;;;;;;;9.75;5.07;;;16.60;99.90;;;;;;5025272;28;20059;-69
2023/07/23 10:51:50;;;;;;;8.35;5.57;;;16.60;99.90;;;;;;5031188;28;20067;-68
2023/07/23 10:54:16;;;;;;;8.18;5.22;;;16.60;99.90;;;;;;5027392;28;20037;-68
2023/07/23 10:56:43;;;;;;;7.65;4.95;;;16.60;99.90;;;;;;5030603;28;20041;-69
2023/07/23 10:59:13;;;;;;;7.57;5.50;;;16.70;99.90;;;;;;5031508;28;20037;-69
2023/07/23 11:02:03;;;;;;;8.20;5.20;;;16.60;99.90;;;;;;5031875;28;20479;-69
2023/07/23 11:04:36;;;;;;;9.68;5.57;;;16.60;99.90;;;;;;5031051;28;20120;-68
2023/07/23 11:07:06;;;;;;;9.23;5.47;;;16.60;99.90;;;;;;5031880;28;20041;-68
2023/07/23 11:09:37;;;;;;;8.27;5.57;;;16.60;99.90;;;;;;5031565;28;20048;-68
2023/07/23 11:12:05;;;;;;;8.95;5.15;;;16.70;99.90;;;;;;5032933;28;20041;-69
2023/07/23 11:14:32;;;;;;;9.45;5.68;;;16.70;99.90;;;;;;5032959;28;20049;-68
2023/07/23 11:17:02;;;;;;;8.93;5.57;;;16.70;99.90;;;;;;5046266;22;20087;-61
2023/07/23 11:19:29;;;;;;;8.85;5.85;;;16.70;99.90;;;;;;5048153;28;20072;-61
2023/07/23 11:22:01;;;;;;;9.63;6.18;;;16.70;99.90;;;;;;5056549;28;20432;-61
2023/07/23 11:24:28;;;;;;;9.40;5.57;;;16.70;99.90;;;;;;5050152;28;20037;-62
2023/07/23 11:26:58;;;;;;;9.73;6.00;;;16.70;99.90;;;;;;5051303;28;20475;-61
2023/07/23 11:29:25;;;;;;;10.32;5.85;;;16.80;99.90;;;;;;5051306;28;20033;-61
2023/07/23 11:31:51;;;;;;;8.65;5.45;;;16.80;99.90;;;;;;5053845;28;20368;-62
2023/07/23 11:34:17;;;;;;;12.18;6.75;;;16.80;99.90;;;;;;5053383;28;20106;-61
2023/07/23 11:36:43;;;;;;;8.55;5.28;;;16.80;99.90;;;;;;5051943;28;20037;-62
2023/07/23 11:39:09;;;;;;;8.07;5.75;;;16.80;99.90;;;;;;5050977;28;20044;-61
2023/07/23 11:41:40;;;;;;;8.68;5.55;;;16.80;99.90;;;;;;5050188;28;20048;-61
2023/07/23 11:44:07;;;;;;;8.75;5.30;;;16.80;99.90;;;;;;5043394;28;20041;-61
2023/07/23 11:46:34;;;;;;;8.98;5.47;;;16.80;99.90;;;;;;5043210;28;20051;-61
2023/07/23 11:49:00;;;;;;;8.65;5.80;;;16.90;99.90;;;;;;5042760;28;20044;-61
2023/07/23 11:51:31;;;;;;;6.60;4.57;;;16.90;99.90;;;;;;5041985;28;20040;-61
2023/07/23 11:54:04;;;;;;;8.02;5.28;;;16.90;99.90;;;;;;5042480;28;20064;-61
2023/07/23 11:56:30;;;;;;;7.57;4.97;;;16.80;99.90;;;;;;5043206;28;20033;-62
2023/07/23 11:59:04;;;;;;;9.70;5.18;;;16.90;99.90;;;;;;5044871;28;20422;-61
2023/07/23 12:01:30;;;;;;;7.53;4.93;;;16.90;99.90;;;;;;5045781;28;20028;-61
2023/07/23 12:03:59;;;;;;;8.55;4.82;;;17.00;99.90;;;;;;5042577;28;20055;-61
2023/07/23 12:06:29;;;;;;;7.57;4.68;;;17.00;99.90;;;;;;5044042;28;20041;-61
2023/07/23 12:08:54;;;;;;;7.35;4.68;;;17.00;99.90;;;;;;5041004;28;20525;-61
2023/07/23 12:11:22;;;;;;;7.30;5.03;;;17.00;99.90;;;;;;5041644;28;20040;-61
2023/07/23 12:13:55;;;;;;;6.43;3.78;;;17.10;99.90;;;;;;5043860;28;20045;-61
2023/07/23 12:16:43;;;;;;;11.43;4.38;;;17.10;99.90;;;;;;5041314;28;20048;-61
2023/07/23 12:19:13;;;;;;;5.90;4.20;;;17.10;99.90;;;;;;5040223;28;20049;-61
2023/07/23 12:21:41;;;;;;;7.82;3.72;;;17.10;99.90;;;;;;5042865;28;20041;-61
2023/07/23 12:24:17;;;;;;;5.85;3.25;;;17.10;99.90;;;;;;5040123;28;20114;-61
2023/07/23 12:26:48;;;;;;;6.25;3.78;;;17.10;99.90;;;;;;5042773;28;20447;-61
2023/07/23 12:29:14;;;;;;;6.13;3.17;;;17.10;99.90;;;;;;5047032;28;20048;-61
2023/07/23 12:31:42;;;;;;;4.38;3.50;;;17.10;99.90;;;;;;5047118;28;20068;-61
2023/07/23 12:34:09;;;;;;;4.70;2.95;;;17.20;99.90;;;;;;5047655;28;20372;-62
2023/07/23 12:36:35;;;;;;;3.85;2.78;;;17.20;99.90;;;;;;5046967;28;20114;-62
2023/07/23 12:39:00;;;;;;;3.35;2.60;;;17.20;99.90;;;;;;5049824;28;20483;-61
2023/07/23 12:41:26;;;;;;;3.95;2.95;;;17.30;99.90;;;;;;5049913;28;20037;-62